Time;durP1;ratioP1;P1;durP2;ratioP2;P2;SDS_P1;SDS_P2;PMS_P1;PMS_P2;Temp;Humidity;BMP_temperature;BMP_pressure;BME280_temperature;BME280_humidity;BME280_pressure;Samples;Min_cycle;Max_cycle;Signal;HPM_P1;HPM_P2
2023/08/18 00:02:22;;;;;;;;;;;;;;;18.86;72.93;101811.22;5043593;28;1035;-77
2023/08/18 00:05:14;;;;;;;;;;;;;;;18.85;72.76;101815.00;5049707;28;941;-76
2023/08/18 00:08:06;;;;;;;;;;;;;;;18.84;72.79;101822.34;5044993;28;1354;-76
2023/08/18 00:10:59;;;;;;;;;;;;;;;18.86;73.11;101818.56;5045553;28;1515;-77
2023/08/18 00:13:50;;;;;;;;;;;;;;;18.84;72.69;101819.63;5047243;28;1162;-77
2023/08/18 00:16:42;;;;;;;;;;;;;;;18.84;72.90;101825.09;5052027;28;992;-78
2023/08/18 00:19:34;;;;;;;;;;;;;;;18.84;72.88;101821.53;5044681;28;1898;-77
2023/08/18 00:22:27;;;;;;;;;;;;;;;18.84;72.58;101824.25;5046767;28;1350;-76
2023/08/18 00:25:18;;;;;;;;;;;;;;;18.82;72.49;101820.94;5045816;28;1711;-77
2023/08/18 00:28:10;;;;;;;;;;;;;;;18.81;72.41;101817.38;5045362;28;1134;-78
2023/08/18 00:31:02;;;;;;;;;;;;;;;18.82;72.76;101821.78;5051283;28;1031;-78
2023/08/18 00:33:54;;;;;;;;;;;;;;;18.81;72.78;101825.56;5046742;28;1591;-78
2023/08/18 00:36:46;;;;;;;;;;;;;;;18.83;72.40;101820.72;5044488;28;2096;-77
2023/08/18 00:39:38;;;;;;;;;;;;;;;18.84;72.49;101825.09;5034887;28;2516;-77
2023/08/18 00:42:30;;;;;;;;;;;;;;;18.86;72.03;101815.84;5038514;28;2127;-77
2023/08/18 00:45:22;;;;;;;;;;;;;;;18.84;72.16;101821.53;5038277;28;2215;-77
2023/08/18 00:48:14;;;;;;;;;;;;;;;18.81;72.25;101830.22;5038131;28;2107;-78
2023/08/18 00:51:06;;;;;;;;;;;;;;;18.83;72.05;101826.16;5044848;28;2301;-79
2023/08/18 00:53:58;;;;;;;;;;;;;;;18.83;72.08;101831.63;5040243;28;2560;-77
2023/08/18 00:56:50;;;;;;;;;;;;;;;18.83;71.77;101826.16;5037934;28;2186;-76
2023/08/18 00:59:43;;;;;;;;;;;;;;;18.83;72.13;101823.44;5040839;28;2223;-77
2023/08/18 01:02:34;;;;;;;;;;;;;;;18.82;71.79;101827.25;5036754;28;2163;-78
2023/08/18 01:05:26;;;;;;;;;;;;;;;18.83;71.75;101837.09;5039727;28;2187;-78
2023/08/18 01:08:18;;;;;;;;;;;;;;;18.80;71.74;101832.13;5035174;28;2135;-78
2023/08/18 01:11:10;;;;;;;;;;;;;;;18.85;71.77;101828.63;5034581;28;2108;-78
2023/08/18 01:14:03;;;;;;;;;;;;;;;18.87;71.42;101842.88;5037943;28;2337;-79
2023/08/18 01:16:55;;;;;;;;;;;;;;;18.87;71.59;101839.31;5036730;28;2485;-78
2023/08/18 01:19:47;;;;;;;;;;;;;;;18.88;71.29;101836.34;5036935;28;2525;-78
2023/08/18 01:22:39;;;;;;;;;;;;;;;18.91;70.91;101845.94;5039693;28;2433;-77
2023/08/18 01:25:31;;;;;;;;;;;;;;;18.87;71.31;101842.06;5039978;28;2524;-77
2023/08/18 01:28:23;;;;;;;;;;;;;;;18.90;71.08;101838.84;5036353;28;2524;-78
2023/08/18 01:31:15;;;;;;;;;;;;;;;18.92;70.89;101834.78;5040126;28;2548;-77
2023/08/18 01:34:07;;;;;;;;;;;;;;;18.93;70.80;101838.34;5041641;28;2083;-77
2023/08/18 01:36:59;;;;;;;;;;;;;;;18.88;70.80;101840.97;5047442;28;1189;-77
2023/08/18 01:39:50;;;;;;;;;;;;;;;18.90;70.76;101836.94;5047370;28;2186;-78
2023/08/18 01:42:42;;;;;;;;;;;;;;;18.91;70.61;101838.56;5046207;28;2067;-77
2023/08/18 01:45:34;;;;;;;;;;;;;;;18.88;70.65;101841.78;5043177;28;2135;-79
2023/08/18 01:48:27;;;;;;;;;;;;;;;18.89;70.58;101837.19;5041916;28;2121;-77
2023/08/18 01:51:18;;;;;;;;;;;;;;;18.87;70.92;101831.97;5045180;28;2169;-77
2023/08/18 01:54:10;;;;;;;;;;;;;;;18.93;70.50;101825.53;5039337;28;2544;-78
2023/08/18 01:57:02;;;;;;;;;;;;;;;18.98;70.03;101822.91;5041272;28;2198;-78
2023/08/18 01:59:54;;;;;;;;;;;;;;;18.94;70.22;101826.34;5042626;28;2135;-79
2023/08/18 02:02:46;;;;;;;;;;;;;;;18.90;70.38;101823.28;5045839;28;2508;-78
2023/08/18 02:05:39;;;;;;;;;;;;;;;18.95;70.28;101823.38;5044485;28;2209;-78
2023/08/18 02:08:30;;;;;;;;;;;;;;;18.96;69.79;101819.56;5043217;28;2088;-78
2023/08/18 02:11:22;;;;;;;;;;;;;;;18.89;70.08;101816.19;5038942;28;2170;-76
2023/08/18 02:14:14;;;;;;;;;;;;;;;18.89;69.96;101818.91;5039857;28;2259;-77
2023/08/18 02:17:06;;;;;;;;;;;;;;;18.93;69.75;101817.31;5044095;28;2041;-79
2023/08/18 02:19:58;;;;;;;;;;;;;;;18.91;69.77;101816.75;5039909;28;2140;-77
2023/08/18 02:22:50;;;;;;;;;;;;;;;18.90;70.11;101825.19;5050629;28;1446;-78
2023/08/18 02:25:41;;;;;;;;;;;;;;;18.87;70.04;101831.97;5045377;28;1118;-78
2023/08/18 02:28:33;;;;;;;;;;;;;;;18.93;69.61;101828.25;5054044;28;1241;-78
2023/08/18 02:31:25;;;;;;;;;;;;;;;18.93;69.70;101825.53;5037854;28;2521;-79
2023/08/18 02:34:17;;;;;;;;;;;;;;;18.91;69.38;101829.56;5047274;28;2386;-77
2023/08/18 02:37:09;;;;;;;;;;;;;;;18.92;69.35;101829.34;5045673;28;1509;-78
2023/08/18 02:40:00;;;;;;;;;;;;;;;18.92;69.64;101832.06;5043880;28;2143;-78
2023/08/18 02:42:52;;;;;;;;;;;;;;;18.82;69.96;101835.44;5042078;28;2375;-78
2023/08/18 02:45:44;;;;;;;;;;;;;;;18.91;69.43;101837.75;5036791;28;2497;-77
2023/08/18 02:48:36;;;;;;;;;;;;;;;18.94;69.04;101834.53;5036622;28;2488;-78
2023/08/18 02:51:28;;;;;;;;;;;;;;;18.87;69.23;101836.59;5035651;28;2591;-76
2023/08/18 02:54:20;;;;;;;;;;;;;;;18.87;69.06;101829.22;5039100;28;2202;-79
2023/08/18 02:57:12;;;;;;;;;;;;;;;18.86;69.35;101827.59;5039143;28;2613;-77
2023/08/18 03:00:04;;;;;;;;;;;;;;;18.92;68.97;101826.59;5041492;28;2758;-77
2023/08/18 03:02:56;;;;;;;;;;;;;;;18.86;69.09;101829.50;5040972;28;2362;-78
2023/08/18 03:05:47;;;;;;;;;;;;;;;18.84;69.16;101832.44;5042024;28;2524;-79
2023/08/18 03:08:39;;;;;;;;;;;;;;;18.92;68.81;101833.97;5039621;28;2139;-79
2023/08/18 03:11:31;;;;;;;;;;;;;;;18.85;69.13;101831.38;5038070;28;2576;-76
2023/08/18 03:14:23;;;;;;;;;;;;;;;18.80;69.19;101828.56;5041076;28;2178;-77
2023/08/18 03:17:15;;;;;;;;;;;;;;;18.81;69.20;101830.22;5037576;28;2219;-77
2023/08/18 03:20:07;;;;;;;;;;;;;;;18.83;69.12;101828.91;5039288;28;2504;-78
2023/08/18 03:22:59;;;;;;;;;;;;;;;18.81;69.22;101832.94;5036716;28;2532;-78
2023/08/18 03:25:50;;;;;;;;;;;;;;;18.81;68.99;101825.56;5042916;28;2561;-78
2023/08/18 03:28:42;;;;;;;;;;;;;;;18.77;68.96;101827.16;5037147;28;2570;-78
2023/08/18 03:31:34;;;;;;;;;;;;;;;18.80;68.71;101828.56;5039263;28;2264;-78
2023/08/18 03:34:26;;;;;;;;;;;;;;;18.83;68.68;101828.06;5037938;28;2182;-77
2023/08/18 03:37:18;;;;;;;;;;;;;;;18.76;69.07;101830.94;5037235;28;2289;-77
2023/08/18 03:40:10;;;;;;;;;;;;;;;18.80;68.76;101828.56;5040822;28;2560;-77
2023/08/18 03:43:02;;;;;;;;;;;;;;;18.78;68.92;101825.25;5038160;28;2247;-78
2023/08/18 03:45:54;;;;;;;;;;;;;;;18.76;68.84;101832.84;5038381;28;2231;-77
2023/08/18 03:48:46;;;;;;;;;;;;;;;18.80;68.79;101834.03;5036139;28;2157;-77
2023/08/18 03:51:38;;;;;;;;;;;;;;;18.78;68.52;101841.63;5035787;28;2123;-77
2023/08/18 03:54:30;;;;;;;;;;;;;;;18.74;68.86;101832.25;5037179;28;2290;-78
2023/08/18 03:57:22;;;;;;;;;;;;;;;18.72;68.68;101842.56;5038566;28;2230;-77
2023/08/18 04:00:14;;;;;;;;;;;;;;;18.73;68.64;101842.31;5039177;28;2592;-78
2023/08/18 04:03:06;;;;;;;;;;;;;;;18.69;68.56;101838.41;5045318;28;2125;-77
2023/08/18 04:05:58;;;;;;;;;;;;;;;18.75;68.69;101842.94;5045302;28;1833;-78
2023/08/18 04:08:50;;;;;;;;;;;;;;;18.75;68.50;101844.81;5045905;28;1460;-77
2023/08/18 04:11:41;;;;;;;;;;;;;;;18.66;68.64;101847.09;5044296;28;960;-76
2023/08/18 04:14:33;;;;;;;;;;;;;;;18.71;68.69;101836.28;5044196;28;1366;-78
2023/08/18 04:17:25;;;;;;;;;;;;;;;18.68;68.65;101841.38;5043474;28;1669;-78
2023/08/18 04:20:17;;;;;;;;;;;;;;;18.76;68.39;101841.84;5052610;28;1965;-77
2023/08/18 04:23:09;;;;;;;;;;;;;;;18.69;68.46;101841.13;5049180;28;924;-78
2023/08/18 04:26:01;;;;;;;;;;;;;;;18.69;68.24;101838.41;5051494;28;948;-77
2023/08/18 04:28:55;;;;;;;;;;;;;;;18.81;68.02;101852.88;5052047;28;1191;-78
2023/08/18 04:31:46;;;;;;;;;;;;;;;18.65;68.25;101845.44;5040102;28;2196;-78
2023/08/18 04:34:38;;;;;;;;;;;;;;;18.65;68.50;101853.63;5040403;28;2275;-77
2023/08/18 04:37:30;;;;;;;;;;;;;;;18.66;68.23;101846.25;5040020;28;2266;-77
2023/08/18 04:40:23;;;;;;;;;;;;;;;18.68;67.95;101844.94;5041524;28;2140;-79
2023/08/18 04:43:14;;;;;;;;;;;;;;;18.66;68.00;101849.81;5042357;28;2128;-78
2023/08/18 04:46:06;;;;;;;;;;;;;;;18.67;67.99;101854.19;5045412;28;2142;-78
2023/08/18 04:48:58;;;;;;;;;;;;;;;18.69;67.93;101853.97;5039172;28;2552;-77
2023/08/18 04:51:50;;;;;;;;;;;;;;;18.55;68.28;101847.94;5042696;28;2276;-77
2023/08/18 04:54:42;;;;;;;;;;;;;;;18.64;67.87;101856.56;5041428;28;2072;-76
2023/08/18 04:57:34;;;;;;;;;;;;;;;18.61;67.95;101852.44;5045076;28;2239;-78
2023/08/18 05:00:26;;;;;;;;;;;;;;;18.68;67.74;101849.56;5042144;28;2274;-77
2023/08/18 05:03:18;;;;;;;;;;;;;;;18.66;68.11;101848.97;5039164;28;2188;-78
2023/08/18 05:06:12;;;;;;;;;;;;;;;18.59;68.00;101849.97;5047273;28;2064;-77
2023/08/18 05:09:05;;;;;;;;;;;;;;;18.67;67.69;101856.09;5044572;28;2257;-79
2023/08/18 05:11:56;;;;;;;;;;;;;;;18.63;67.98;101853.03;5044927;28;1884;-78
2023/08/18 05:14:48;;;;;;;;;;;;;;;18.70;67.55;101861.06;5044781;28;2128;-79
2023/08/18 05:17:40;;;;;;;;;;;;;;;18.58;68.11;101856.47;5046722;28;2550;-78
2023/08/18 05:20:32;;;;;;;;;;;;;;;18.65;67.94;101858.22;5046500;28;2174;-78
2023/08/18 05:23:24;;;;;;;;;;;;;;;18.57;67.83;101848.53;5047139;28;2327;-79
2023/08/18 05:26:15;;;;;;;;;;;;;;;18.55;67.77;101864.31;5042200;28;2163;-78
2023/08/18 05:29:07;;;;;;;;;;;;;;;18.59;67.45;101862.78;5049049;28;2396;-79
2023/08/18 05:31:59;;;;;;;;;;;;;;;18.56;68.03;101858.63;5044195;28;2277;-78
2023/08/18 05:34:50;;;;;;;;;;;;;;;18.53;67.54;101856.38;5044751;28;1968;-79
2023/08/18 05:37:42;;;;;;;;;;;;;;;18.58;67.49;101850.19;5047239;28;1169;-79
2023/08/18 05:40:34;;;;;;;;;;;;;;;18.55;67.82;101862.41;5043623;28;2171;-78
2023/08/18 05:43:26;;;;;;;;;;;;;;;18.57;67.41;101864.91;5039799;28;2251;-78
2023/08/18 05:46:17;;;;;;;;;;;;;;;18.59;67.18;101862.78;5050418;28;1871;-78
2023/08/18 05:49:10;;;;;;;;;;;;;;;18.57;67.43;101867.63;5053019;28;1853;-78
2023/08/18 05:52:01;;;;;;;;;;;;;;;18.51;67.87;101876.78;5051712;28;1514;-77
2023/08/18 05:54:53;;;;;;;;;;;;;;;18.52;67.78;101872.97;5045236;28;944;-78
2023/08/18 05:57:44;;;;;;;;;;;;;;;18.51;67.57;101869.44;5049138;28;1181;-79
2023/08/18 06:00:36;;;;;;;;;;;;;;;18.50;67.79;101878.69;5051669;28;1906;-78
2023/08/18 06:03:27;;;;;;;;;;;;;;;18.51;67.74;101877.59;5046324;28;2083;-78
2023/08/18 06:06:19;;;;;;;;;;;;;;;18.51;67.68;101876.78;5047415;28;2561;-77
2023/08/18 06:09:11;;;;;;;;;;;;;;;18.52;67.35;101878.44;5044829;28;2261;-79
2023/08/18 06:12:03;;;;;;;;;;;;;;;18.42;67.26;101856.41;5046980;28;1051;-78
2023/08/18 06:14:55;;;;;;;;;;;;;;;18.53;67.53;101880.06;5049090;28;2168;-78
2023/08/18 06:17:47;;;;;;;;;;;;;;;18.45;67.64;101877.75;5044370;28;1292;-77
2023/08/18 06:20:39;;;;;;;;;;;;;;;18.45;67.43;101886.75;5040038;28;2641;-77
2023/08/18 06:23:31;;;;;;;;;;;;;;;18.48;67.36;101886.28;5040859;28;2612;-78
2023/08/18 06:26:23;;;;;;;;;;;;;;;18.44;67.71;101886.97;5044671;28;2075;-78
2023/08/18 06:29:15;;;;;;;;;;;;;;;18.36;67.85;101882.75;5037699;28;2115;-78
2023/08/18 06:32:07;;;;;;;;;;;;;;;18.50;67.43;101886.03;5041968;28;2344;-78
2023/08/18 06:34:59;;;;;;;;;;;;;;;18.46;67.61;101877.50;5036517;28;2182;-78
2023/08/18 06:37:51;;;;;;;;;;;;;;;18.38;67.86;101875.13;5035247;28;2146;-78
2023/08/18 06:40:43;;;;;;;;;;;;;;;18.38;67.66;101877.84;5034790;28;2137;-79
2023/08/18 06:43:34;;;;;;;;;;;;;;;18.42;67.63;101870.03;5035681;28;2310;-76
2023/08/18 06:46:26;;;;;;;;;;;;;;;18.45;67.27;101875.84;5037868;28;2250;-77
2023/08/18 06:49:18;;;;;;;;;;;;;;;18.29;67.99;101877.38;5038474;28;2271;-79
2023/08/18 06:52:10;;;;;;;;;;;;;;;18.36;67.68;101871.84;5034756;28;2257;-78
2023/08/18 06:55:03;;;;;;;;;;;;;;;18.41;67.63;101871.09;5034391;28;2505;-78
2023/08/18 06:57:55;;;;;;;;;;;;;;;18.53;67.14;101875.47;5035634;28;2183;-78
2023/08/18 07:00:46;;;;;;;;;;;;;;;18.37;67.58;101874.31;5032835;28;2371;-78
2023/08/18 07:03:38;;;;;;;;;;;;;;;18.41;67.04;101877.38;5032745;28;2812;-78
2023/08/18 07:06:30;;;;;;;;;;;;;;;18.41;67.59;101879.28;5035711;28;2671;-78
2023/08/18 07:09:22;;;;;;;;;;;;;;;18.32;67.64;101874.22;5041953;28;2787;-78
2023/08/18 07:12:14;;;;;;;;;;;;;;;18.35;67.57;101881.91;5038342;28;2250;-77
2023/08/18 07:15:06;;;;;;;;;;;;;;;18.38;67.44;101884.16;5033679;28;2596;-78
2023/08/18 07:17:57;;;;;;;;;;;;;;;18.02;67.60;101882.50;5035998;28;2422;-78
2023/08/18 07:20:49;;;;;;;;;;;;;;;18.17;67.93;101890.22;5034733;28;2737;-77
2023/08/18 07:23:41;;;;;;;;;;;;;;;18.23;67.62;101891.16;5032514;28;2633;-78
2023/08/18 07:26:33;;;;;;;;;;;;;;;18.23;67.84;101894.72;5033565;28;2273;-79
2023/08/18 07:29:25;;;;;;;;;;;;;;;18.33;67.55;101889.50;5035894;28;2388;-78
2023/08/18 07:32:17;;;;;;;;;;;;;;;18.43;67.11;101891.59;5031735;28;2361;-77
2023/08/18 07:35:09;;;;;;;;;;;;;;;18.15;68.03;101889.66;5034049;28;2834;-78
2023/08/18 07:38:02;;;;;;;;;;;;;;;18.18;68.05;101891.88;5036339;28;2428;-78
2023/08/18 07:40:54;;;;;;;;;;;;;;;18.25;67.66;101887.13;5038252;28;2747;-77
2023/08/18 07:43:47;;;;;;;;;;;;;;;18.31;67.59;101890.81;5037091;28;2647;-77
2023/08/18 07:46:39;;;;;;;;;;;;;;;18.28;67.73;101891.28;5038380;28;2423;-78
2023/08/18 07:49:30;;;;;;;;;;;;;;;18.19;67.74;101895.44;5040849;28;2241;-78
2023/08/18 07:52:22;;;;;;;;;;;;;;;18.29;67.27;101899.22;5041165;28;2692;-79
2023/08/18 07:55:14;;;;;;;;;;;;;;;18.37;67.12;101904.31;5038749;28;2322;-78
2023/08/18 07:58:06;;;;;;;;;;;;;;;18.23;67.42;101904.78;5039831;28;2656;-78
2023/08/18 08:00:58;;;;;;;;;;;;;;;18.14;68.09;101901.59;5038454;28;2379;-78
2023/08/18 08:03:50;;;;;;;;;;;;;;;18.02;68.28;101909.78;5040562;28;2274;-79
2023/08/18 08:06:42;;;;;;;;;;;;;;;17.97;68.25;101908.81;5036970;28;2703;-78
2023/08/18 08:09:34;;;;;;;;;;;;;;;18.12;67.86;101911.94;5046985;28;2238;-78
2023/08/18 08:12:26;;;;;;;;;;;;;;;18.14;67.64;101913.31;5043346;28;1165;-78
2023/08/18 08:15:18;;;;;;;;;;;;;;;18.00;68.13;101914.66;5043812;28;2222;-77
2023/08/18 08:18:10;;;;;;;;;;;;;;;18.15;67.96;101911.44;5040402;28;2671;-78
2023/08/18 08:21:02;;;;;;;;;;;;;;;17.96;68.42;101915.34;5036700;28;2416;-79
2023/08/18 08:23:56;;;;;;;;;;;;;;;17.74;69.42;101915.06;5037632;28;2361;-78
2023/08/18 08:26:48;;;;;;;;;;;;;;;17.99;68.38;101921.16;5037818;28;2347;-80
2023/08/18 08:29:40;;;;;;;;;;;;;;;17.95;68.51;101917.25;5037924;28;2858;-78
2023/08/18 08:32:32;;;;;;;;;;;;;;;18.00;68.52;101927.44;5036813;28;2482;-78
2023/08/18 08:35:27;;;;;;;;;;;;;;;17.89;68.66;101929.91;5036482;28;2714;-78
2023/08/18 08:38:18;;;;;;;;;;;;;;;17.85;68.63;101923.28;5035877;28;2281;-78
2023/08/18 08:41:11;;;;;;;;;;;;;;;17.77;68.99;101923.59;5037637;28;2322;-77
2023/08/18 08:44:02;;;;;;;;;;;;;;;17.78;69.23;101927.19;5037733;28;2330;-78
2023/08/18 08:46:54;;;;;;;;;;;;;;;17.78;69.23;101921.72;5035449;28;2279;-78
2023/08/18 08:49:46;;;;;;;;;;;;;;;17.93;68.63;101919.38;5033960;28;2488;-79
2023/08/18 08:52:38;;;;;;;;;;;;;;;17.86;68.84;101916.75;5035683;28;2366;-80
2023/08/18 08:55:31;;;;;;;;;;;;;;;17.80;68.86;101917.72;5033652;28;2336;-79
2023/08/18 08:58:22;;;;;;;;;;;;;;;17.73;69.11;101916.09;5034805;28;5194;-79
2023/08/18 09:01:13;;;;;;;;;;;;;;;17.84;68.76;101923.50;5033735;28;2692;-78
2023/08/18 09:04:04;;;;;;;;;;;;;;;17.64;69.68;101918.34;5038805;28;2760;-78
2023/08/18 09:06:57;;;;;;;;;;;;;;;17.62;69.75;101921.31;5046828;28;2536;-80
2023/08/18 09:09:49;;;;;;;;;;;;;;;17.61;69.68;101919.63;5043989;28;2373;-81
2023/08/18 09:12:41;;;;;;;;;;;;;;;17.63;69.66;101931.13;5046932;28;5026;-79
2023/08/18 09:15:33;;;;;;;;;;;;;;;17.69;69.47;101919.31;5043382;28;2271;-78
2023/08/18 09:18:25;;;;;;;;;;;;;;;17.66;69.38;101914.31;5046326;28;4133;-80
2023/08/18 09:21:19;;;;;;;;;;;;;;;17.67;69.62;101920.59;5041036;28;2371;-78
2023/08/18 09:24:10;;;;;;;;;;;;;;;17.64;69.68;101918.34;5042947;28;2231;-79
2023/08/18 09:27:02;;;;;;;;;;;;;;;17.62;69.68;101915.88;5041432;28;2191;-79
2023/08/18 09:29:55;;;;;;;;;;;;;;;17.63;69.78;101916.69;5039402;28;2334;-79
2023/08/18 09:32:46;;;;;;;;;;;;;;;17.63;69.57;101911.25;5035676;28;2184;-80
2023/08/18 09:35:38;;;;;;;;;;;;;;;17.61;69.88;101905.19;5038099;28;2313;-79
2023/08/18 09:38:32;;;;;;;;;;;;;;;17.61;69.81;101910.63;5047951;28;2354;-79
2023/08/18 09:41:24;;;;;;;;;;;;;;;17.60;69.74;101909.81;5044281;28;2298;-78
2023/08/18 09:44:16;;;;;;;;;;;;;;;17.62;69.55;101912.31;5043651;28;2157;-80
2023/08/18 09:47:09;;;;;;;;;;;;;;;17.62;69.91;101904.16;5037540;28;2250;-80
2023/08/18 09:50:00;;;;;;;;;;;;;;;17.60;69.87;101900.81;5037951;28;2333;-80
2023/08/18 09:52:52;;;;;;;;;;;;;;;17.61;69.82;101902.47;5035471;28;2829;-80
2023/08/18 09:55:45;;;;;;;;;;;;;;;17.62;69.64;101910.41;5044201;28;2375;-82
2023/08/18 09:58:36;;;;;;;;;;;;;;;17.60;70.03;101898.91;5040118;28;2401;-82
2023/08/18 10:01:27;;;;;;;;;;;;;;;17.61;69.79;101903.28;5037840;28;2482;-81
2023/08/18 10:04:19;;;;;;;;;;;;;;;17.63;69.75;101905.78;5040316;28;2727;-83
2023/08/18 10:07:11;;;;;;;;;;;;;;;17.61;69.78;101903.28;5040996;28;2590;-81
2023/08/18 10:10:03;;;;;;;;;;;;;;;17.61;69.87;101913.38;5038938;28;4885;-82
2023/08/18 10:12:55;;;;;;;;;;;;;;;17.61;69.92;101908.75;5039234;28;2488;-82
2023/08/18 10:15:47;;;;;;;;;;;;;;;17.63;69.83;101901.16;5046729;28;1956;-80
2023/08/18 10:18:39;;;;;;;;;;;;;;;17.63;69.98;101908.53;5047820;28;2180;-81
2023/08/18 10:21:31;;;;;;;;;;;;;;;17.63;69.76;101906.63;5051925;28;2207;-80
2023/08/18 10:24:23;;;;;;;;;;;;;;;17.63;69.78;101903.06;5041169;28;4607;-79
2023/08/18 10:27:15;;;;;;;;;;;;;;;17.64;69.82;101907.44;5041455;28;2294;-81
2023/08/18 10:30:08;;;;;;;;;;;;;;;17.65;69.76;101911.84;5038970;28;5139;-81
2023/08/18 10:33:03;;;;;;;;;;;;;;;17.65;69.86;101909.13;5041319;28;1574;-81
2023/08/18 10:35:55;;;;;;;;;;;;;;;17.66;70.01;101910.78;5041251;28;2309;-83
2023/08/18 10:38:47;;;;;;;;;;;;;;;17.64;69.96;101902.81;5037503;28;2487;-84
2023/08/18 10:41:39;;;;;;;;;;;;;;;17.65;70.29;101901.78;5042408;28;2330;-84
2023/08/18 10:44:31;;;;;;;;;;;;;;;17.66;70.12;101895.25;5044065;28;2376;-82
2023/08/18 10:47:23;;;;;;;;;;;;;;;17.65;69.97;101888.16;5049737;28;2153;-83
2023/08/18 10:50:15;;;;;;;;;;;;;;;17.66;70.04;101894.44;5043205;28;2295;-82
2023/08/18 10:53:07;;;;;;;;;;;;;;;17.66;69.97;101891.72;5046601;28;2257;-82
2023/08/18 10:56:00;;;;;;;;;;;;;;;17.67;69.96;101885.19;5049567;28;1458;-85
2023/08/18 10:58:51;;;;;;;;;;;;;;;17.67;70.02;101883.28;5046569;28;2149;-84
2023/08/18 11:01:43;;;;;;;;;;;;;;;17.66;70.17;101884.34;5046052;28;2432;-81
2023/08/18 11:04:35;;;;;;;;;;;;;;;17.67;70.33;101885.19;5044689;28;2276;-83
2023/08/18 11:07:28;;;;;;;;;;;;;;;17.67;70.24;101894.19;5052003;28;2522;-84
2023/08/18 11:10:19;;;;;;;;;;;;;;;17.67;70.37;101888.72;5045612;28;2263;-82
2023/08/18 11:13:11;;;;;;;;;;;;;;;17.68;70.08;101884.97;5044990;28;2372;-83
2023/08/18 11:16:03;;;;;;;;;;;;;;;17.68;70.23;101887.69;5043699;28;2266;-82
2023/08/18 11:18:54;;;;;;;;;;;;;;;17.69;70.20;101874.88;5037455;28;2340;-81
2023/08/18 11:21:46;;;;;;;;;;;;;;;17.69;70.37;101883.06;5032967;28;4872;-82
2023/08/18 11:24:39;;;;;;;;;;;;;;;17.70;70.21;101879.25;5043632;28;2376;-82
2023/08/18 11:27:31;;;;;;;;;;;;;;;17.70;70.10;101882.00;5041346;28;2996;-81
2023/08/18 11:30:23;;;;;;;;;;;;;;;17.71;70.10;101883.66;5046558;28;2206;-83
2023/08/18 11:33:26;;;;;;;;;;;;;;;17.74;70.11;101893.28;5039837;28;2321;-83
2023/08/18 11:36:18;;;;;;;;;;;;;;;17.73;70.38;101883.41;5040212;28;2379;-81
2023/08/18 11:39:10;;;;;;;;;;;;;;;17.75;70.15;101881.28;5044261;28;2292;-83
2023/08/18 11:42:03;;;;;;;;;;;;;;;17.75;70.00;101878.56;5039980;28;2356;-81
2023/08/18 11:44:54;;;;;;;;;;;;;;;17.76;70.05;101882.94;5044890;28;2288;-82
2023/08/18 11:47:47;;;;;;;;;;;;;;;17.76;70.19;101875.59;5051812;28;2225;-81
2023/08/18 11:50:38;;;;;;;;;;;;;;;17.77;70.14;101874.56;5046261;28;2249;-82
2023/08/18 11:53:31;;;;;;;;;;;;;;;17.78;70.26;101864.50;5046431;28;2250;-81
2023/08/18 11:56:26;;;;;;;;;;;;;;;17.77;70.25;101863.66;5041824;28;2175;-81
2023/08/18 11:59:17;;;;;;;;;;;;;;;17.78;70.23;101862.59;5050056;28;934;-81
2023/08/18 12:02:09;;;;;;;;;;;;;;;17.79;70.20;101861.53;5040043;28;2396;-82
2023/08/18 12:05:03;;;;;;;;;;;;;;;17.80;70.21;101867.84;5044872;28;2257;-82
2023/08/18 12:07:54;;;;;;;;;;;;;;;17.80;70.26;101863.22;5043546;28;2341;-83
2023/08/18 12:10:49;;;;;;;;;;;;;;;17.81;70.16;101858.59;5039337;28;2073;-82
2023/08/18 12:13:41;;;;;;;;;;;;;;;17.83;70.50;101856.47;5046371;28;2370;-81
2023/08/18 12:16:32;;;;;;;;;;;;;;;17.83;70.32;101856.47;5049222;28;2083;-84
2023/08/18 12:19:24;;;;;;;;;;;;;;;17.84;70.27;101866.28;5057909;28;987;-82
2023/08/18 12:22:16;;;;;;;;;;;;;;;17.84;70.45;101855.38;5041254;28;4940;-82
2023/08/18 12:25:09;;;;;;;;;;;;;;;17.86;70.66;101861.44;5052671;28;2308;-83
2023/08/18 12:28:00;;;;;;;;;;;;;;;17.86;70.45;101848.63;5046395;28;2158;-83
2023/08/18 12:30:55;;;;;;;;;;;;;;;17.87;70.35;101855.72;5050529;28;1336;-83
2023/08/18 12:33:46;;;;;;;;;;;;;;;17.87;70.26;101847.56;5043399;28;2201;-83
2023/08/18 12:36:38;;;;;;;;;;;;;;;17.88;70.49;101841.06;5051936;28;1794;-84
2023/08/18 12:39:29;;;;;;;;;;;;;;;17.88;70.42;101846.50;5050689;28;1304;-83
2023/08/18 12:42:23;;;;;;;;;;;;;;;17.90;70.56;101843.53;5052606;28;1914;-84
2023/08/18 12:45:14;;;;;;;;;;;;;;;17.91;70.39;101845.19;5051476;28;2225;-83
2023/08/18 12:48:05;;;;;;;;;;;;;;;17.92;70.60;101844.13;5046853;28;1623;-83
2023/08/18 12:50:57;;;;;;;;;;;;;;;17.92;70.44;101841.41;5046734;28;2225;-85
2023/08/18 12:53:49;;;;;;;;;;;;;;;17.93;70.71;101845.78;5047549;28;2190;-83
2023/08/18 12:56:42;;;;;;;;;;;;;;;17.93;70.43;101846.59;5052527;28;2187;-82
2023/08/18 12:59:33;;;;;;;;;;;;;;;17.95;70.49;101845.56;5047125;28;2169;-83
2023/08/18 13:02:24;;;;;;;;;;;;;;;17.96;70.50;101844.47;5044966;28;3875;-83
2023/08/18 13:05:16;;;;;;;;;;;;;;;17.97;70.48;101840.69;5041257;28;4671;-79
2023/08/18 13:08:09;;;;;;;;;;;;;;;17.98;70.52;101834.19;5047364;28;2626;-84
2023/08/18 13:11:01;;;;;;;;;;;;;;;17.99;70.46;101838.56;5045091;28;2336;-84
2023/08/18 13:13:53;;;;;;;;;;;;;;;17.99;70.72;101839.38;5042961;28;2431;-82
2023/08/18 13:16:45;;;;;;;;;;;;;;;18.00;70.75;101832.03;5053588;28;2459;-84
2023/08/18 13:19:37;;;;;;;;;;;;;;;18.03;70.73;101831.56;5054774;28;2280;-83
2023/08/18 13:22:28;;;;;;;;;;;;;;;18.03;70.78;101834.28;5050141;28;4825;-81
2023/08/18 13:25:19;;;;;;;;;;;;;;;18.04;70.73;101825.88;5052415;28;2539;-82
2023/08/18 13:28:12;;;;;;;;;;;;;;;18.04;70.58;101827.78;5046471;28;2120;-83
2023/08/18 13:31:04;;;;;;;;;;;;;;;18.08;70.63;101831.66;5042875;28;2385;-83
2023/08/18 13:33:56;;;;;;;;;;;;;;;18.08;70.69;101832.50;5046910;28;2338;-84
2023/08/18 13:36:47;;;;;;;;;;;;;;;18.09;70.91;101831.44;5049765;28;1379;-85
2023/08/18 13:39:38;;;;;;;;;;;;;;;18.10;70.54;101827.63;5045570;28;2380;-82
2023/08/18 13:42:29;;;;;;;;;;;;;;;18.12;70.95;101827.41;5053411;28;1955;-82
2023/08/18 13:45:22;;;;;;;;;;;;;;;18.13;70.90;101831.78;5052578;28;906;-82
2023/08/18 13:48:14;;;;;;;;;;;;;;;18.13;70.93;101824.44;5041681;28;2302;-84
2023/08/18 13:51:05;;;;;;;;;;;;;;;18.15;70.94;101825.03;5050854;28;2536;-82
2023/08/18 13:53:57;;;;;;;;;;;;;;;18.17;70.97;101830.22;5049956;28;2435;-83
2023/08/18 13:56:50;;;;;;;;;;;;;;;18.18;70.63;101826.47;5047660;28;1720;-83
2023/08/18 13:59:42;;;;;;;;;;;;;;;18.27;70.95;101829.66;5054309;28;1429;-82
2023/08/18 14:02:33;;;;;;;;;;;;;;;18.26;70.58;101819.78;5051033;28;2487;-82
2023/08/18 14:05:25;;;;;;;;;;;;;;;18.23;70.98;101821.09;5038953;28;2641;-82
2023/08/18 14:08:17;;;;;;;;;;;;;;;18.25;70.81;101820.88;5046563;28;2510;-82
2023/08/18 14:11:13;;;;;;;;;;;;;;;18.25;70.86;101826.31;5046118;28;2466;-84
2023/08/18 14:14:04;;;;;;;;;;;;;;;18.26;70.93;101820.59;5043889;28;2447;-81
2023/08/18 14:16:55;;;;;;;;;;;;;;;18.27;70.62;101813.28;5057092;28;2512;-83
2023/08/18 14:19:46;;;;;;;;;;;;;;;18.29;70.95;101817.41;5044022;28;1094;-83
2023/08/18 14:22:38;;;;;;;;;;;;;;;18.30;70.82;101807.34;5053911;28;2300;-81
2023/08/18 14:25:30;;;;;;;;;;;;;;;18.31;70.75;101814.44;5041061;28;1622;-83
2023/08/18 14:28:23;;;;;;;;;;;;;;;18.32;70.93;101810.63;5045557;28;1502;-85
2023/08/18 14:31:14;;;;;;;;;;;;;;;18.34;71.05;101805.78;5040497;28;1605;-82
2023/08/18 14:34:06;;;;;;;;;;;;;;;18.35;70.91;101805.56;5042152;28;2415;-81
2023/08/18 14:36:59;;;;;;;;;;;;;;;18.38;70.94;101801.50;5049706;28;1537;-81
2023/08/18 14:39:50;;;;;;;;;;;;;;;18.39;70.74;101801.25;5049449;28;1613;-81
2023/08/18 14:42:41;;;;;;;;;;;;;;;18.39;71.06;101801.25;5043671;28;2528;-82
2023/08/18 14:45:33;;;;;;;;;;;;;;;18.40;71.22;101785.72;5050496;28;2376;-80
2023/08/18 14:48:26;;;;;;;;;;;;;;;18.43;71.06;101792.59;5049205;28;2514;-82
2023/08/18 14:51:17;;;;;;;;;;;;;;;18.44;71.01;101795.06;5055858;28;2341;-81
2023/08/18 14:54:09;;;;;;;;;;;;;;;18.45;71.22;101791.28;5046347;28;2312;-82
2023/08/18 14:57:03;;;;;;;;;;;;;;;18.47;70.90;101796.47;5051668;28;1984;-80